Terminal Aerodrome Forecast
Issued by NWS

Home | Current Version | Previous Version | Text Only | Print | Product List | Glossary On
Versions: 1 2 3 4 5 6 7 8 9 10 11 12 13 14 15 16 17 18 19 20
000
FTUS43 KILX 301731
TAFCMI
TAF
KCMI 301731Z 3018/0118 29008KT P6SM SCT060
     FM010000 33005KT P6SM SKC
     FM010900 03003KT 3SM BR BKN250
     FM011400 08006KT P6SM BKN035=

USA.gov is the U.S. government's official web portal to all federal, state and local government web resources and services.